Time;durP1;ratioP1;P1;durP2;ratioP2;P2;SDS_P1;SDS_P2;PMS_P1;PMS_P2;Temp;Humidity;BMP_temperature;BMP_pressure;BME280_temperature;BME280_humidity;BME280_pressure;Samples;Min_cycle;Max_cycle;Signal;HPM_P1;HPM_P2
2022/07/15 00:04:44;;;;;;;10.77;8.75;;;26.50;47.10;;;;;;4615346;60;21080;-30
2022/07/15 00:15:05;;;;;;;9.57;8.35;;;26.50;47.20;;;;;;4615173;60;21531;-31
2022/07/15 00:20:08;;;;;;;9.20;8.30;;;26.60;47.30;;;;;;5014702;56;21554;-30
2022/07/15 00:25:09;;;;;;;8.95;8.05;;;26.50;47.20;;;;;;4739874;56;21081;-30
2022/07/15 00:30:11;;;;;;;8.93;8.00;;;26.50;47.20;;;;;;4662003;56;21156;-31
2022/07/15 00:35:11;;;;;;;9.25;8.05;;;26.50;47.10;;;;;;4927294;56;21029;-29
2022/07/15 00:40:12;;;;;;;9.25;8.30;;;26.50;47.30;;;;;;4643317;56;21028;-30
2022/07/15 00:45:22;;;;;;;7.97;7.18;;;26.50;47.30;;;;;;4672527;56;21019;-33
2022/07/15 00:50:25;;;;;;;8.55;7.65;;;26.50;47.30;;;;;;4635974;56;21012;-32
2022/07/15 00:55:29;;;;;;;9.27;7.40;;;26.50;47.30;;;;;;4754498;56;21047;-33
2022/07/15 01:00:31;;;;;;;8.07;7.28;;;26.50;47.40;;;;;;4615520;60;21004;-30
2022/07/15 01:05:33;;;;;;;8.63;7.82;;;26.50;47.40;;;;;;4617822;56;21020;-30
2022/07/15 01:10:35;;;;;;;8.40;7.47;;;26.50;47.50;;;;;;5007381;56;21017;-29
2022/07/15 01:15:36;;;;;;;8.55;7.53;;;26.50;47.80;;;;;;4981958;56;21601;-32
2022/07/15 01:20:41;;;;;;;7.55;6.75;;;26.50;47.70;;;;;;4615253;60;21093;-36
2022/07/15 01:25:44;;;;;;;8.48;7.53;;;26.50;47.40;;;;;;4614701;60;21076;-28
2022/07/15 01:30:45;;;;;;;7.72;7.03;;;26.50;47.60;;;;;;4669398;56;21662;-35
2022/07/15 01:35:46;;;;;;;8.18;7.30;;;26.50;47.60;;;;;;4614925;60;21153;-32
2022/07/15 01:40:47;;;;;;;7.80;6.55;;;26.50;47.60;;;;;;4728424;56;21080;-34
2022/07/15 01:45:48;;;;;;;7.80;6.97;;;26.50;47.60;;;;;;4666877;56;21016;-33
2022/07/15 01:50:49;;;;;;;7.62;6.62;;;26.50;47.70;;;;;;4704192;56;21113;-31
2022/07/15 01:55:50;;;;;;;7.82;7.00;;;26.50;47.70;;;;;;4615584;57;21029;-30
2022/07/15 02:00:51;;;;;;;6.45;5.90;;;26.50;47.80;;;;;;4824162;56;21629;-32
2022/07/15 02:05:51;;;;;;;7.37;6.65;;;26.50;47.80;;;;;;4720812;56;21036;-32
2022/07/15 02:10:52;;;;;;;8.15;6.82;;;26.50;47.70;;;;;;4642700;56;21036;-32
2022/07/15 02:15:53;;;;;;;6.55;5.95;;;26.50;47.70;;;;;;4642083;56;21482;-33
2022/07/15 02:20:54;;;;;;;6.78;6.05;;;26.50;47.80;;;;;;4640747;56;20997;-35
2022/07/15 02:25:55;;;;;;;7.47;5.97;;;26.50;47.80;;;;;;4614663;60;21048;-33
2022/07/15 02:30:56;;;;;;;7.00;6.18;;;26.50;47.70;;;;;;4713408;56;21511;-30
2022/07/15 02:35:57;;;;;;;6.68;6.07;;;26.50;48.50;;;;;;4638370;56;21060;-29
2022/07/15 02:40:58;;;;;;;6.80;5.95;;;26.50;47.80;;;;;;4759434;56;21064;-29
2022/07/15 02:45:58;;;;;;;6.47;5.87;;;26.50;47.80;;;;;;5073383;56;21575;-30
2022/07/15 02:50:59;;;;;;;6.45;5.85;;;26.50;47.70;;;;;;4708477;56;21463;-33
2022/07/15 02:56:00;;;;;;;6.22;5.62;;;26.50;47.90;;;;;;4668550;56;21115;-33
2022/07/15 03:01:01;;;;;;;6.12;5.53;;;26.50;47.90;;;;;;4889015;56;21073;-32
2022/07/15 03:06:02;;;;;;;6.70;6.00;;;26.50;48.00;;;;;;4620665;56;21012;-31
2022/07/15 03:11:03;;;;;;;6.22;5.62;;;26.50;47.70;;;;;;4741172;56;21106;-32
2022/07/15 03:16:04;;;;;;;6.10;5.50;;;26.50;47.80;;;;;;4801181;56;21534;-33
2022/07/15 03:21:05;;;;;;;6.25;5.65;;;26.50;47.80;;;;;;4615088;60;21016;-32
2022/07/15 03:26:07;;;;;;;5.72;5.12;;;26.50;47.90;;;;;;4648046;56;21511;-31
2022/07/15 03:31:08;;;;;;;5.82;5.22;;;26.50;47.90;;;;;;4644510;56;21475;-33
2022/07/15 03:36:09;;;;;;;6.90;5.25;;;26.50;47.80;;;;;;5035876;56;21008;-32
2022/07/15 03:41:09;;;;;;;5.45;4.95;;;26.40;47.70;;;;;;4616783;56;21009;-31
2022/07/15 03:46:10;;;;;;;5.85;5.30;;;26.40;47.60;;;;;;4615123;60;21037;-30
2022/07/15 03:51:11;;;;;;;5.40;4.90;;;26.50;47.70;;;;;;4614895;57;21020;-33
2022/07/15 03:56:12;;;;;;;7.00;4.97;;;26.40;48.10;;;;;;4649594;56;21013;-32
2022/07/15 04:01:13;;;;;;;5.60;5.10;;;26.40;47.60;;;;;;4615109;60;21676;-30
2022/07/15 04:06:15;;;;;;;5.62;5.12;;;26.40;47.60;;;;;;5037801;56;21069;-33
2022/07/15 04:11:16;;;;;;;5.80;5.15;;;26.40;47.60;;;;;;4759303;56;21148;-30
2022/07/15 04:16:17;;;;;;;7.40;4.93;;;26.40;47.50;;;;;;5048460;56;21012;-29
2022/07/15 04:21:18;;;;;;;5.43;4.90;;;26.40;47.60;;;;;;4615485;56;21543;-29
2022/07/15 04:26:19;;;;;;;5.87;5.32;;;26.40;47.50;;;;;;4745616;56;21060;-31
2022/07/15 04:31:20;;;;;;;5.82;4.65;;;26.40;47.60;;;;;;4748823;56;21036;-30
2022/07/15 04:36:20;;;;;;;5.90;5.03;;;26.40;47.40;;;;;;4614924;60;21073;-30
2022/07/15 04:41:22;;;;;;;5.78;5.18;;;26.40;47.40;;;;;;4751300;56;21471;-30
2022/07/15 04:46:23;;;;;;;5.40;4.90;;;26.40;47.60;;;;;;4805462;56;21555;-32
2022/07/15 04:51:24;;;;;;;5.30;4.78;;;26.40;47.40;;;;;;4843888;56;21020;-29
2022/07/15 04:56:25;;;;;;;5.35;4.50;;;26.40;47.50;;;;;;4654221;56;21543;-29
2022/07/15 05:01:26;;;;;;;5.32;4.82;;;26.40;48.10;;;;;;4754417;56;21614;-29
2022/07/15 05:06:27;;;;;;;4.82;4.37;;;26.40;47.40;;;;;;4626892;56;21040;-33
2022/07/15 05:11:28;;;;;;;5.78;4.95;;;26.40;47.40;;;;;;4614325;60;21107;-30
2022/07/15 05:16:30;;;;;;;5.32;4.80;;;26.40;47.50;;;;;;4614932;60;21090;-28
2022/07/15 05:21:31;;;;;;;5.65;5.00;;;26.40;47.50;;;;;;5072607;56;21479;-29
2022/07/15 05:26:32;;;;;;;6.00;5.32;;;26.40;47.40;;;;;;4623554;56;21048;-29
2022/07/15 05:31:33;;;;;;;6.25;5.10;;;26.40;47.40;;;;;;4614603;57;21085;-33
2022/07/15 05:36:34;;;;;;;5.15;4.65;;;26.40;47.40;;;;;;4857243;56;21455;-33
2022/07/15 05:41:35;;;;;;;5.97;4.40;;;26.40;47.30;;;;;;4638781;56;21558;-29
2022/07/15 05:46:36;;;;;;;6.03;4.80;;;26.30;47.40;;;;;;4744444;56;21072;-29
2022/07/15 05:51:37;;;;;;;5.68;5.10;;;26.40;47.40;;;;;;4699571;56;21591;-29
2022/07/15 05:56:38;;;;;;;6.05;5.15;;;26.40;47.40;;;;;;4635578;56;21032;-28
2022/07/15 06:01:39;;;;;;;6.55;4.62;;;26.40;47.40;;;;;;4754162;56;21025;-28
2022/07/15 06:06:40;;;;;;;5.93;5.20;;;26.40;47.50;;;;;;4731679;56;21032;-28
2022/07/15 06:11:41;;;;;;;5.37;4.55;;;26.40;47.40;;;;;;4626152;56;21064;-29
2022/07/15 06:16:42;;;;;;;6.87;5.32;;;26.40;47.40;;;;;;4746243;56;21499;-29
2022/07/15 06:21:42;;;;;;;5.35;4.85;;;26.40;47.40;;;;;;4809046;56;21028;-32
2022/07/15 06:26:43;;;;;;;6.15;4.78;;;26.40;47.50;;;;;;4655698;56;21081;-31
2022/07/15 06:31:44;;;;;;;5.37;4.75;;;26.40;47.40;;;;;;4730488;56;21471;-30
2022/07/15 06:36:45;;;;;;;6.43;5.35;;;26.40;47.50;;;;;;4760459;56;21035;-28
2022/07/15 06:41:46;;;;;;;6.00;5.40;;;26.40;47.50;;;;;;4652647;56;21024;-29
2022/07/15 06:46:46;;;;;;;5.80;4.70;;;26.40;47.50;;;;;;4636317;56;21076;-29
2022/07/15 06:51:47;;;;;;;7.35;5.35;;;26.40;47.50;;;;;;4640137;56;21068;-29
2022/07/15 06:56:48;;;;;;;5.78;4.80;;;26.40;47.50;;;;;;4652016;56;21557;-29
2022/07/15 07:01:49;;;;;;;7.25;5.05;;;26.40;47.50;;;;;;4631809;56;21386;-30
2022/07/15 07:06:50;;;;;;;20.27;12.57;;;26.40;47.50;;;;;;4660122;56;21069;-27
2022/07/15 07:11:50;;;;;;;20.37;13.13;;;26.40;48.00;;;;;;4635321;56;21029;-28
2022/07/15 07:16:51;;;;;;;18.77;12.75;;;26.40;48.10;;;;;;4633911;56;21478;-29
2022/07/15 07:21:52;;;;;;;21.80;14.85;;;26.40;48.30;;;;;;4721975;56;21087;-25
2022/07/15 07:26:53;;;;;;;25.02;16.77;;;26.40;48.30;;;;;;4614490;60;21076;-31
2022/07/15 07:31:54;;;;;;;25.62;16.87;;;26.40;48.40;;;;;;4624548;56;21045;-30
2022/07/15 07:36:55;;;;;;;30.95;21.48;;;26.50;48.40;;;;;;4653512;56;21495;-28
2022/07/15 07:41:56;;;;;;;34.10;23.80;;;26.50;48.60;;;;;;4619393;56;21026;-29
2022/07/15 07:46:57;;;;;;;35.60;24.92;;;26.50;48.60;;;;;;4615788;56;22414;-26
2022/07/15 07:51:58;;;;;;;36.70;25.92;;;26.50;48.50;;;;;;4719584;56;21131;-28
2022/07/15 07:56:59;;;;;;;40.67;29.10;;;26.60;48.40;;;;;;4632940;56;21065;-27
2022/07/15 08:02:00;;;;;;;41.35;30.80;;;26.60;48.40;;;;;;4693331;56;21088;-29
2022/07/15 08:07:01;;;;;;;58.30;37.42;;;26.60;48.20;;;;;;4728128;56;21041;-29
2022/07/15 08:12:02;;;;;;;49.72;37.17;;;26.70;48.30;;;;;;4641935;56;21518;-28
2022/07/15 08:17:03;;;;;;;63.55;43.00;;;26.70;48.20;;;;;;4628287;56;21029;-30
2022/07/15 08:22:04;;;;;;;48.72;33.55;;;26.70;47.70;;;;;;4632830;56;21044;-30
2022/07/15 08:27:05;;;;;;;53.40;34.88;;;26.70;48.30;;;;;;4675787;56;21084;-28
2022/07/15 08:32:05;;;;;;;40.12;31.45;;;26.70;48.10;;;;;;4651621;56;21123;-25
2022/07/15 08:37:06;;;;;;;42.70;32.10;;;26.70;47.90;;;;;;4614419;60;21024;-28
2022/07/15 08:42:07;;;;;;;47.05;33.10;;;26.70;48.30;;;;;;4614378;60;21522;-27
2022/07/15 08:47:10;;;;;;;41.63;30.83;;;26.70;47.70;;;;;;4658166;56;21048;-28
2022/07/15 08:52:13;;;;;;;46.83;32.28;;;26.70;47.50;;;;;;4658109;56;21610;-27
2022/07/15 08:57:14;;;;;;;43.38;32.17;;;26.80;47.60;;;;;;4669493;56;21016;-31
2022/07/15 09:02:19;;;;;;;38.55;30.70;;;26.80;47.50;;;;;;4613893;60;21025;-24
2022/07/15 09:07:20;;;;;;;41.85;31.12;;;26.80;47.50;;;;;;4637238;56;21590;-27
2022/07/15 09:12:20;;;;;;;41.05;29.85;;;26.80;47.50;;;;;;4617601;56;21112;-28
2022/07/15 09:17:23;;;;;;;41.25;29.85;;;26.80;47.50;;;;;;4614101;60;21041;-34
2022/07/15 09:22:26;;;;;;;42.78;29.35;;;26.80;47.40;;;;;;4614112;60;21076;-27
2022/07/15 09:27:33;;;;;;;36.78;26.55;;;26.80;47.80;;;;;;4613885;56;21067;-25
2022/07/15 09:38:00;;;;;;;34.65;26.98;;;27.00;48.40;;;;;;4623328;56;21542;-27
2022/07/15 09:43:07;;;;;;;33.60;26.25;;;27.00;48.60;;;;;;4640369;56;21562;-28
2022/07/15 09:48:09;;;;;;;35.70;27.13;;;26.90;48.60;;;;;;4639718;56;21506;-33
2022/07/15 09:53:12;;;;;;;34.38;26.52;;;26.90;48.60;;;;;;4613809;60;21033;-30
2022/07/15 09:58:14;;;;;;;31.75;25.30;;;26.80;48.60;;;;;;4702321;56;21131;-31
2022/07/15 10:03:16;;;;;;;34.03;24.70;;;26.80;48.60;;;;;;4787102;56;21538;-31
2022/07/15 10:08:18;;;;;;;32.60;25.92;;;26.80;48.70;;;;;;4634954;56;21016;-27
2022/07/15 10:13:53;;;;;;;34.50;25.83;;;26.80;48.70;;;;;;4615535;56;21080;-30
2022/07/15 10:26:04;;;;;;;31.87;24.67;;;26.80;48.70;;;;;;4808004;56;21128;-31
2022/07/15 10:33:07;;;;;;;29.37;23.30;;;26.80;48.80;;;;;;4668650;56;21028;-29
2022/07/15 10:38:34;;;;;;;29.33;23.73;;;26.80;48.70;;;;;;4615349;60;21515;-29
2022/07/15 10:43:53;;;;;;;29.25;23.92;;;26.70;48.70;;;;;;4615005;60;21060;-29
2022/07/15 10:49:36;;;;;;;27.77;22.55;;;26.70;48.70;;;;;;4732098;56;21020;-28
2022/07/15 10:54:45;;;;;;;29.65;23.20;;;26.70;48.70;;;;;;4666391;56;21013;-28
2022/07/15 10:59:49;;;;;;;28.70;22.60;;;26.70;48.70;;;;;;4666537;56;21020;-30
2022/07/15 11:04:51;;;;;;;31.12;23.40;;;26.70;48.60;;;;;;4615121;60;21076;-29
2022/07/15 11:10:14;;;;;;;27.33;21.80;;;26.70;48.60;;;;;;4614968;60;21482;-29
2022/07/15 11:15:17;;;;;;;28.02;21.80;;;26.70;48.60;;;;;;4625615;56;21567;-28
2022/07/15 11:20:21;;;;;;;26.62;22.02;;;26.70;48.50;;;;;;4621107;56;21105;-30
2022/07/15 11:25:28;;;;;;;27.80;22.98;;;26.70;48.50;;;;;;4688866;56;21104;-29
2022/07/15 11:30:47;;;;;;;26.10;21.98;;;26.70;48.50;;;;;;4772979;56;21017;-30
2022/07/15 11:36:00;;;;;;;27.58;22.37;;;26.70;48.50;;;;;;4725598;56;21478;-28
2022/07/15 11:46:23;;;;;;;25.33;21.05;;;26.70;48.50;;;;;;4614954;56;21052;-30
2022/07/15 11:51:26;;;;;;;23.98;20.83;;;26.70;48.50;;;;;;4783405;56;21057;-28
2022/07/15 11:56:27;;;;;;;26.45;20.85;;;26.70;48.50;;;;;;4748428;56;21506;-30
2022/07/15 12:01:28;;;;;;;25.88;21.70;;;26.70;48.50;;;;;;4706583;56;21016;-30
2022/07/15 12:06:31;;;;;;;24.85;20.20;;;26.70;48.40;;;;;;4723335;56;21068;-31
2022/07/15 12:11:37;;;;;;;24.58;19.92;;;26.70;48.40;;;;;;4672753;56;21071;-28
2022/07/15 12:16:54;;;;;;;25.35;20.00;;;26.70;48.40;;;;;;4687228;56;21012;-30
2022/07/15 12:21:57;;;;;;;22.67;20.17;;;26.70;48.40;;;;;;4730603;56;21163;-29
2022/07/15 12:26:58;;;;;;;21.73;19.40;;;26.70;48.40;;;;;;4694722;56;21008;-29
2022/07/15 12:32:10;;;;;;;23.27;19.17;;;26.70;48.30;;;;;;4877364;56;21563;-30
2022/07/15 12:37:12;;;;;;;24.12;20.37;;;26.70;48.40;;;;;;4713674;56;21064;-30
2022/07/15 12:42:16;;;;;;;23.45;19.50;;;26.70;48.40;;;;;;4732952;56;21076;-28
2022/07/15 12:47:17;;;;;;;22.83;19.08;;;26.80;48.40;;;;;;4727440;56;21543;-29
2022/07/15 12:52:30;;;;;;;22.27;18.83;;;26.70;48.40;;;;;;4801619;56;21498;-29
2022/07/15 12:57:35;;;;;;;22.95;19.17;;;26.70;48.30;;;;;;4802525;56;21562;-30
2022/07/15 13:03:11;;;;;;;23.60;18.37;;;26.70;48.40;;;;;;4614894;60;21193;-30
2022/07/15 13:08:17;;;;;;;22.77;18.58;;;26.70;48.40;;;;;;4695149;56;21028;-29
2022/07/15 13:13:22;;;;;;;21.17;18.75;;;26.80;48.40;;;;;;4614385;60;21064;-29
2022/07/15 13:18:25;;;;;;;22.48;18.40;;;26.70;48.30;;;;;;4634263;56;21118;-30
2022/07/15 13:23:26;;;;;;;22.58;18.25;;;26.70;48.30;;;;;;4669879;56;21502;-31
2022/07/15 13:28:27;;;;;;;21.15;18.67;;;26.70;48.30;;;;;;4781624;56;21516;-29
2022/07/15 13:33:28;;;;;;;19.92;17.45;;;26.80;48.40;;;;;;4615262;56;21004;-31
2022/07/15 13:38:29;;;;;;;20.00;17.87;;;26.80;48.30;;;;;;4655519;56;20996;-30
2022/07/15 13:43:29;;;;;;;21.45;18.02;;;26.80;48.30;;;;;;4614882;60;21048;-28
2022/07/15 13:48:30;;;;;;;21.35;18.50;;;26.80;48.30;;;;;;4614946;60;21011;-31
2022/07/15 13:53:31;;;;;;;21.25;17.98;;;26.80;48.30;;;;;;4742040;56;21539;-33
2022/07/15 13:58:32;;;;;;;20.88;17.67;;;26.80;48.30;;;;;;4649196;56;21454;-28
2022/07/15 14:03:33;;;;;;;18.30;16.05;;;26.80;48.30;;;;;;4794313;56;21479;-30
2022/07/15 14:08:34;;;;;;;19.27;16.75;;;26.80;48.30;;;;;;4685731;56;21463;-29
2022/07/15 14:13:35;;;;;;;19.30;17.20;;;26.80;48.20;;;;;;4699421;56;21013;-28
2022/07/15 14:18:46;;;;;;;19.73;16.98;;;26.80;48.20;;;;;;4637138;56;21049;-30
2022/07/15 14:23:48;;;;;;;20.08;17.25;;;26.80;48.30;;;;;;4742341;56;21542;-31
2022/07/15 14:28:49;;;;;;;19.30;17.15;;;26.80;48.20;;;;;;4891520;56;21506;-30
2022/07/15 14:33:50;;;;;;;18.80;16.80;;;26.80;48.20;;;;;;4795516;56;21112;-31
2022/07/15 14:38:51;;;;;;;18.70;16.80;;;26.80;48.20;;;;;;4774332;56;21485;-32
2022/07/15 14:43:52;;;;;;;18.85;16.85;;;26.80;48.20;;;;;;4795646;56;21024;-34
2022/07/15 14:48:54;;;;;;;18.05;16.00;;;26.80;48.10;;;;;;4870566;56;21036;-31
2022/07/15 14:53:55;;;;;;;17.73;15.82;;;26.80;48.10;;;;;;5073176;56;21068;-31
2022/07/15 14:58:56;;;;;;;17.60;15.65;;;26.80;48.10;;;;;;4667668;56;21019;-29
2022/07/15 15:03:57;;;;;;;18.98;16.73;;;26.90;48.20;;;;;;4742480;56;21032;-29
2022/07/15 15:08:58;;;;;;;18.98;16.67;;;26.80;48.10;;;;;;4664695;56;21029;-29
2022/07/15 15:14:01;;;;;;;18.80;15.60;;;26.80;48.20;;;;;;4693235;56;21534;-31
2022/07/15 15:19:02;;;;;;;18.40;16.10;;;26.80;48.10;;;;;;4615464;56;21474;-29
2022/07/15 15:24:06;;;;;;;18.87;15.93;;;26.90;48.90;;;;;;4783937;56;21097;-30
2022/07/15 15:29:07;;;;;;;18.02;15.38;;;26.90;48.20;;;;;;4651174;56;21605;-33
2022/07/15 15:34:07;;;;;;;17.45;15.52;;;26.80;48.20;;;;;;4802549;56;21084;-31
2022/07/15 15:39:08;;;;;;;17.23;15.43;;;26.80;48.20;;;;;;4656364;56;21013;-30
2022/07/15 15:44:10;;;;;;;16.95;15.15;;;26.80;48.20;;;;;;4708402;56;21035;-29
2022/07/15 15:49:10;;;;;;;18.20;15.63;;;26.90;48.20;;;;;;4865154;56;21053;-33
2022/07/15 15:54:11;;;;;;;17.20;14.73;;;26.90;48.30;;;;;;4615562;60;21044;-29
2022/07/15 15:59:12;;;;;;;16.17;14.52;;;26.80;48.20;;;;;;4718795;56;21032;-29
2022/07/15 16:04:13;;;;;;;16.73;15.00;;;26.90;48.30;;;;;;4803177;56;21490;-30
2022/07/15 16:09:17;;;;;;;16.52;14.70;;;26.90;48.30;;;;;;4753153;56;21593;-32
2022/07/15 16:14:18;;;;;;;16.73;14.93;;;26.90;48.40;;;;;;4615110;56;21084;-29
2022/07/15 16:19:19;;;;;;;15.55;13.95;;;26.90;48.30;;;;;;4619364;56;21100;-29
2022/07/15 16:24:19;;;;;;;15.95;14.25;;;26.90;48.30;;;;;;4614624;60;21522;-29
2022/07/15 16:29:20;;;;;;;15.48;13.88;;;26.90;48.30;;;;;;4655015;56;21033;-28
2022/07/15 16:34:22;;;;;;;16.45;14.75;;;26.90;48.30;;;;;;4614963;57;21072;-28
2022/07/15 16:39:22;;;;;;;15.68;14.05;;;26.90;48.30;;;;;;4615188;60;21573;-29
2022/07/15 16:44:23;;;;;;;15.57;13.98;;;26.90;48.40;;;;;;4688137;56;21077;-30
2022/07/15 16:49:24;;;;;;;15.82;14.02;;;26.90;48.50;;;;;;4761679;56;21053;-30
2022/07/15 16:54:26;;;;;;;16.58;14.10;;;26.90;48.40;;;;;;4614992;60;21012;-31
2022/07/15 16:59:27;;;;;;;16.40;14.43;;;26.90;48.40;;;;;;4615373;60;21561;-32
2022/07/15 17:04:28;;;;;;;14.60;13.10;;;26.90;48.50;;;;;;4615213;56;21097;-30
2022/07/15 17:09:29;;;;;;;16.35;14.07;;;26.90;48.40;;;;;;4630469;56;21072;-32
2022/07/15 17:14:30;;;;;;;16.52;14.38;;;26.90;48.50;;;;;;4707805;56;21116;-31
2022/07/15 17:19:31;;;;;;;15.52;13.93;;;26.90;48.50;;;;;;4736885;56;21587;-30
2022/07/15 17:24:31;;;;;;;14.95;13.45;;;26.90;48.50;;;;;;4784974;56;21514;-30
2022/07/15 17:29:32;;;;;;;15.60;13.95;;;26.90;48.50;;;;;;4701176;56;21140;-27
2022/07/15 17:34:33;;;;;;;14.82;13.23;;;26.90;48.50;;;;;;4614934;56;21076;-32
2022/07/15 17:39:34;;;;;;;15.82;13.80;;;26.90;49.20;;;;;;4899140;56;21020;-31
2022/07/15 17:44:35;;;;;;;15.00;13.45;;;26.90;48.50;;;;;;4651704;56;21016;-30
2022/07/15 17:49:35;;;;;;;14.77;13.27;;;26.90;48.50;;;;;;4667440;56;21523;-29
2022/07/15 17:54:36;;;;;;;14.90;13.25;;;26.90;48.50;;;;;;4834710;56;21056;-30
2022/07/15 17:59:39;;;;;;;15.25;13.60;;;26.90;48.50;;;;;;4666949;56;21303;-30
2022/07/15 18:04:39;;;;;;;15.00;13.50;;;26.90;48.50;;;;;;4769720;56;21511;-30
2022/07/15 18:09:40;;;;;;;15.10;13.52;;;26.90;48.50;;;;;;4660191;56;21092;-31
2022/07/15 18:14:41;;;;;;;14.73;13.15;;;26.90;48.60;;;;;;4716543;56;21020;-29
2022/07/15 18:19:42;;;;;;;14.68;13.02;;;26.90;48.60;;;;;;4703411;56;20997;-28
2022/07/15 18:24:44;;;;;;;14.02;12.63;;;26.90;48.50;;;;;;4808475;56;21120;-29
2022/07/15 18:29:45;;;;;;;14.27;12.82;;;26.90;48.50;;;;;;4653100;56;21493;-31
2022/07/15 18:34:46;;;;;;;14.20;12.75;;;26.90;48.40;;;;;;4702588;56;21487;-29
2022/07/15 18:39:47;;;;;;;13.98;12.48;;;26.90;48.50;;;;;;4615130;60;21067;-30
2022/07/15 18:44:47;;;;;;;14.60;13.10;;;27.00;48.50;;;;;;4680127;56;21040;-29
2022/07/15 18:49:48;;;;;;;14.82;13.32;;;26.90;48.40;;;;;;4632569;56;21027;-28
2022/07/15 18:54:49;;;;;;;14.05;12.65;;;26.90;48.40;;;;;;4614061;60;21482;-30
2022/07/15 18:59:50;;;;;;;14.15;12.63;;;27.00;48.50;;;;;;4624285;56;21064;-30
2022/07/15 19:04:51;;;;;;;15.00;12.88;;;26.90;48.50;;;;;;4675345;56;21056;-29
2022/07/15 19:09:51;;;;;;;13.48;12.07;;;26.90;48.40;;;;;;4704127;56;21024;-35
2022/07/15 19:14:52;;;;;;;13.05;11.75;;;26.90;48.40;;;;;;4890113;56;21023;-34
2022/07/15 19:19:53;;;;;;;14.43;12.93;;;26.90;48.50;;;;;;4636785;56;21057;-30
2022/07/15 19:24:54;;;;;;;14.30;12.82;;;26.90;48.50;;;;;;4748356;56;21056;-31
2022/07/15 19:29:57;;;;;;;13.88;12.48;;;27.00;48.60;;;;;;4699226;56;21487;-30
2022/07/15 19:34:59;;;;;;;13.40;12.02;;;26.90;48.50;;;;;;4627391;56;21128;-30
2022/07/15 19:40:00;;;;;;;13.10;11.85;;;26.90;48.40;;;;;;4614940;60;21485;-32
2022/07/15 19:45:03;;;;;;;13.32;11.93;;;26.90;48.40;;;;;;4703147;56;21032;-28
2022/07/15 19:50:04;;;;;;;13.98;12.57;;;26.90;48.40;;;;;;4614653;60;21088;-28
2022/07/15 19:55:06;;;;;;;13.95;12.55;;;26.90;48.50;;;;;;4897225;56;21060;-30
2022/07/15 20:00:15;;;;;;;13.62;12.23;;;27.00;48.50;;;;;;4723511;56;21049;-31
2022/07/15 20:05:17;;;;;;;13.50;12.13;;;26.90;48.40;;;;;;4743291;56;21559;-30
2022/07/15 20:10:19;;;;;;;13.38;12.07;;;26.90;48.40;;;;;;4792202;56;21024;-31
2022/07/15 20:15:21;;;;;;;14.48;12.93;;;26.90;48.30;;;;;;4615524;60;21020;-29
2022/07/15 20:20:22;;;;;;;15.10;13.07;;;27.00;48.40;;;;;;4615276;60;21024;-28
2022/07/15 20:25:23;;;;;;;14.95;12.55;;;26.90;48.30;;;;;;4663553;56;21049;-29
2022/07/15 20:30:24;;;;;;;14.77;13.23;;;27.00;48.30;;;;;;4742271;56;21028;-30
2022/07/15 20:35:26;;;;;;;14.87;13.32;;;27.00;48.40;;;;;;4729431;56;21555;-29
2022/07/15 20:40:27;;;;;;;15.23;13.62;;;26.90;48.20;;;;;;4685685;56;21555;-32
2022/07/15 20:45:28;;;;;;;14.85;13.25;;;26.90;48.20;;;;;;4724646;56;21025;-29
2022/07/15 20:50:29;;;;;;;18.02;13.93;;;26.90;48.10;;;;;;4614904;60;21024;-31
2022/07/15 20:55:29;;;;;;;15.32;13.18;;;26.90;48.10;;;;;;4719283;56;21471;-31
2022/07/15 21:00:30;;;;;;;15.20;13.45;;;26.90;48.10;;;;;;4615049;56;21029;-32
2022/07/15 21:05:32;;;;;;;17.15;14.25;;;26.90;48.10;;;;;;4669764;56;21026;-31
2022/07/15 21:10:32;;;;;;;14.65;12.77;;;26.90;48.10;;;;;;4614974;60;21147;-31
2022/07/15 21:15:33;;;;;;;16.20;12.82;;;26.90;48.00;;;;;;4675409;56;21491;-32
2022/07/15 21:20:34;;;;;;;15.50;13.30;;;26.90;48.10;;;;;;4664696;56;21073;-30
2022/07/15 21:30:54;;;;;;;14.70;12.95;;;26.90;48.10;;;;;;4614649;56;21048;-29
2022/07/15 21:35:55;;;;;;;13.98;12.48;;;26.90;48.00;;;;;;4698928;56;21033;-34
2022/07/15 21:40:57;;;;;;;13.45;12.00;;;27.00;48.00;;;;;;4727829;56;21026;-34
2022/07/15 21:45:59;;;;;;;14.93;13.02;;;26.90;47.90;;;;;;4746801;56;21037;-28
2022/07/15 21:50:59;;;;;;;14.00;12.55;;;26.90;47.90;;;;;;4615095;60;21581;-30
2022/07/15 21:56:00;;;;;;;13.20;11.85;;;26.90;47.90;;;;;;4690633;56;21076;-31
2022/07/15 22:01:01;;;;;;;13.70;11.77;;;26.90;48.00;;;;;;4812207;56;21064;-34
2022/07/15 22:06:02;;;;;;;14.15;12.15;;;26.90;48.00;;;;;;4817197;56;21016;-30
2022/07/15 22:11:03;;;;;;;13.65;11.52;;;26.90;48.00;;;;;;4931631;56;21593;-30
2022/07/15 22:16:05;;;;;;;12.37;11.07;;;26.90;47.90;;;;;;4679061;56;21020;-29
2022/07/15 22:21:08;;;;;;;12.68;11.38;;;26.90;47.90;;;;;;4743741;56;21013;-32
2022/07/15 22:26:09;;;;;;;13.30;10.82;;;26.90;48.00;;;;;;4614853;60;21658;-27
2022/07/15 22:31:11;;;;;;;12.40;11.07;;;26.90;48.10;;;;;;4661044;56;21144;-29
2022/07/15 22:36:12;;;;;;;12.20;10.93;;;26.90;48.10;;;;;;4704334;56;21132;-30
2022/07/15 22:41:12;;;;;;;12.57;11.25;;;26.90;48.90;;;;;;4734015;56;21021;-33
2022/07/15 22:46:14;;;;;;;12.73;11.43;;;26.90;48.10;;;;;;4643303;56;21077;-33
2022/07/15 22:51:14;;;;;;;12.37;11.07;;;26.90;48.20;;;;;;4730566;56;21016;-34
2022/07/15 22:56:15;;;;;;;11.68;10.48;;;26.90;48.20;;;;;;4698877;56;21076;-30
2022/07/15 23:01:16;;;;;;;11.52;10.32;;;26.90;48.20;;;;;;4696539;56;21491;-30
2022/07/15 23:06:17;;;;;;;11.30;10.20;;;26.90;48.20;;;;;;4772343;56;21504;-29
2022/07/15 23:11:18;;;;;;;11.63;10.43;;;26.90;48.30;;;;;;4897194;56;21005;-29
2022/07/15 23:16:19;;;;;;;11.85;10.30;;;26.90;48.30;;;;;;4678476;56;21562;-30
2022/07/15 23:21:20;;;;;;;11.25;10.05;;;26.90;48.30;;;;;;4684969;56;21559;-29
2022/07/15 23:26:20;;;;;;;11.55;10.35;;;26.90;48.40;;;;;;4901334;56;21107;-33
2022/07/15 23:31:21;;;;;;;10.40;9.38;;;26.90;48.40;;;;;;4811553;56;21072;-32
2022/07/15 23:36:22;;;;;;;10.57;9.35;;;26.90;48.40;;;;;;4704119;56;21475;-33
2022/07/15 23:41:23;;;;;;;11.40;10.20;;;26.90;48.50;;;;;;4615325;60;21049;-32
2022/07/15 23:46:24;;;;;;;12.13;10.00;;;26.90;48.50;;;;;;4615647;60;21007;-32
2022/07/15 23:51:25;;;;;;;11.05;9.95;;;26.90;48.50;;;;;;4833827;56;21049;-34
2022/07/15 23:56:25;;;;;;;10.88;9.77;;;26.90;48.40;;;;;;4623617;56;21019;-30
